createdAt,value
2023-05-03T00:00:47.748Z,408.5000
2023-05-03T00:01:56.237Z,406.2857
2023-05-03T00:03:04.068Z,407.0000
2023-05-03T00:04:12.054Z,407.1429
2023-05-03T00:05:20.276Z,405.5714
2023-05-03T00:06:28.521Z,407.0714
2023-05-03T00:07:36.251Z,401.5000
2023-05-03T00:08:44.284Z,404.5714
2023-05-03T00:09:52.350Z,402.6429
2023-05-03T00:11:00.416Z,404.6429
2023-05-03T00:12:08.566Z,402.1429
2023-05-03T00:13:16.421Z,399.7857
2023-05-03T00:14:24.483Z,399.9286
2023-05-03T00:15:32.538Z,402.8571
2023-05-03T00:16:40.844Z,400.5714
2023-05-03T00:17:48.853Z,401.5714
2023-05-03T00:18:56.889Z,401.6429
2023-05-03T00:20:05.035Z,400.0000
2023-05-03T00:21:13.132Z,400.1429
2023-05-03T00:22:21.042Z,400.8571
2023-05-03T00:23:29.136Z,398.7857
2023-05-03T00:24:37.181Z,396.3571
2023-05-03T00:25:45.260Z,399.3571
2023-05-03T00:26:53.276Z,399.4286
2023-05-03T00:28:01.157Z,400.4286
2023-05-03T00:29:09.232Z,396.9286
2023-05-03T00:30:17.286Z,397.3571
2023-05-03T00:31:25.528Z,398.2857
2023-05-03T00:32:33.611Z,399.6429
2023-05-03T00:33:41.787Z,395.7143
2023-05-03T00:34:49.647Z,397.0000
2023-05-03T00:35:57.734Z,397.8571
2023-05-03T00:37:05.986Z,395.1429
2023-05-03T00:38:13.872Z,392.8571
2023-05-03T00:39:21.902Z,396.5714
2023-05-03T00:40:29.980Z,393.7857
2023-05-03T00:41:38.057Z,391.9286
2023-05-03T00:42:45.972Z,395.7143
2023-05-03T00:43:54.008Z,393.7143
2023-05-03T00:45:02.050Z,394.1429
2023-05-03T00:46:16.907Z,391.1429
2023-05-03T00:47:23.185Z,391.5333
2023-05-03T00:48:31.187Z,391.4286
2023-05-03T00:49:39.267Z,391.5714
2023-05-03T00:50:47.593Z,391.5714
2023-05-03T00:51:55.382Z,387.8571
2023-05-03T00:53:03.457Z,388.7143
2023-05-03T00:54:11.739Z,390.5714
2023-05-03T00:55:19.637Z,390.7143
2023-05-03T00:56:28.269Z,389.2857
2023-05-03T00:57:40.456Z,387.7333
2023-05-03T00:58:48.618Z,389.0714
2023-05-03T00:59:56.869Z,391.0714
2023-05-03T01:01:04.761Z,386.4286
2023-05-03T01:02:12.881Z,387.0000
2023-05-03T01:03:20.987Z,385.7857
2023-05-03T01:04:28.918Z,387.5714
2023-05-03T01:05:37.022Z,388.0000
2023-05-03T01:06:45.072Z,388.2857
2023-05-03T01:07:53.116Z,390.9286
2023-05-03T01:09:01.235Z,388.7143
2023-05-03T01:10:09.221Z,390.8571
2023-05-03T01:11:17.150Z,390.1429
2023-05-03T01:12:25.238Z,388.0714
2023-05-03T01:13:33.430Z,389.2857
2023-05-03T01:14:41.601Z,387.9286
2023-05-03T01:15:49.572Z,389.7857
2023-05-03T01:16:57.585Z,388.5000
2023-05-03T01:18:05.891Z,387.5000
2023-05-03T01:19:13.709Z,387.8571
2023-05-03T01:20:21.833Z,389.3571
2023-05-03T01:21:29.834Z,386.5714
2023-05-03T01:22:37.884Z,389.9286
2023-05-03T01:23:46.028Z,389.3571
2023-05-03T01:24:53.891Z,389.4286
2023-05-03T01:26:01.930Z,390.2143
2023-05-03T01:27:09.991Z,389.1429
2023-05-03T01:28:18.185Z,390.6429
2023-05-03T01:29:26.303Z,390.8571
2023-05-03T01:30:34.282Z,391.7857
2023-05-03T01:31:42.500Z,391.1429
2023-05-03T01:32:50.467Z,393.0714
2023-05-03T01:33:58.637Z,391.6429
2023-05-03T01:35:06.716Z,389.2857
2023-05-03T01:36:14.701Z,391.5000
2023-05-03T01:37:22.738Z,392.0714
2023-05-03T01:38:30.792Z,393.0000
2023-05-03T01:39:38.729Z,394.7857
2023-05-03T01:40:46.815Z,394.7857
2023-05-03T01:41:54.850Z,391.8571
2023-05-03T01:43:03.109Z,393.8571
2023-05-03T01:44:11.126Z,391.4286
2023-05-03T01:45:19.161Z,392.2857
2023-05-03T01:46:27.358Z,395.9286
2023-05-03T01:47:35.277Z,393.8571
2023-05-03T01:48:43.356Z,394.3571
2023-05-03T01:49:51.564Z,391.6429
2023-05-03T01:50:59.520Z,392.7143
2023-05-03T01:52:07.518Z,394.9286
2023-05-03T01:53:15.586Z,396.2857
2023-05-03T01:54:23.606Z,396.0000
2023-05-03T01:55:31.553Z,395.0714
2023-05-03T01:56:39.632Z,395.5714
2023-05-03T01:57:47.671Z,396.2143
2023-05-03T01:58:55.897Z,397.6429
2023-05-03T02:00:04.118Z,394.1429
2023-05-03T02:01:12.053Z,398.7857
2023-05-03T02:02:20.091Z,398.7143
2023-05-03T02:03:28.085Z,399.5000
2023-05-03T02:04:36.238Z,398.7143
2023-05-03T02:05:44.322Z,398.4286
2023-05-03T02:06:52.333Z,402.7857
2023-05-03T02:08:00.417Z,399.2143
2023-05-03T02:09:08.381Z,400.1429
2023-05-03T02:10:16.366Z,399.2857
2023-05-03T02:11:24.374Z,400.2143
2023-05-03T02:12:32.463Z,399.8571
2023-05-03T02:13:40.640Z,397.9286
2023-05-03T02:14:48.724Z,399.7143
2023-05-03T02:15:56.723Z,399.3571
2023-05-03T02:17:04.878Z,397.0714
2023-05-03T02:18:12.892Z,398.1429
2023-05-03T02:19:20.933Z,398.0714
2023-05-03T02:20:28.950Z,397.1429
2023-05-03T02:21:37.021Z,397.5714
2023-05-03T02:22:45.198Z,397.9286
2023-05-03T02:23:53.120Z,395.5714
2023-05-03T02:25:01.054Z,396.6429
2023-05-03T02:26:09.084Z,396.0000
2023-05-03T02:27:17.176Z,395.3571
2023-05-03T02:28:25.442Z,395.7857
2023-05-03T02:29:33.398Z,396.6429
2023-05-03T02:30:41.493Z,398.4286
2023-05-03T02:31:49.565Z,396.4286
2023-05-03T02:32:57.680Z,395.7143
2023-05-03T02:34:05.645Z,395.0000
2023-05-03T02:35:13.741Z,395.2857
2023-05-03T02:36:21.836Z,395.3571
2023-05-03T02:37:29.832Z,395.2143
2023-05-03T02:38:37.921Z,393.8571
2023-05-03T02:39:45.802Z,395.5000
2023-05-03T02:40:53.875Z,393.4286
2023-05-03T02:42:01.912Z,393.7857
2023-05-03T02:43:10.144Z,392.4286
2023-05-03T02:44:18.243Z,391.5000
2023-05-03T02:45:26.264Z,394.1429
2023-05-03T02:46:34.291Z,391.5000
2023-05-03T02:47:42.443Z,390.4286
2023-05-03T02:48:50.457Z,391.8571
2023-05-03T02:49:58.637Z,389.5714
2023-05-03T02:51:06.551Z,389.0714
2023-05-03T02:52:14.563Z,389.0714
2023-05-03T02:53:22.636Z,388.5000
2023-05-03T02:54:30.559Z,388.2857
2023-05-03T02:55:38.609Z,389.6429
2023-05-03T02:56:46.656Z,386.0714
2023-05-03T02:57:54.963Z,388.5714
2023-05-03T02:59:02.922Z,390.0714
2023-05-03T03:00:10.965Z,390.3571
2023-05-03T03:01:19.025Z,386.8571
2023-05-03T03:02:27.115Z,389.5714
2023-05-03T03:03:35.269Z,390.2857
2023-05-03T03:04:43.236Z,389.4286
2023-05-03T03:05:51.200Z,387.8571
2023-05-03T03:06:59.283Z,389.5000
2023-05-03T03:08:07.364Z,388.2857
2023-05-03T03:09:15.272Z,387.9286
2023-05-03T03:10:23.371Z,391.2143
2023-05-03T03:11:31.395Z,386.9286
2023-05-03T03:12:39.704Z,389.7857
2023-05-03T03:13:47.625Z,388.3571
2023-05-03T03:14:55.800Z,391.6429
2023-05-03T03:16:03.870Z,390.5714
2023-05-03T03:17:11.822Z,387.7143
2023-05-03T03:18:19.944Z,390.1429
2023-05-03T03:19:27.945Z,390.7143
2023-05-03T03:20:35.966Z,390.8571
2023-05-03T03:21:44.184Z,391.7143
2023-05-03T03:22:52.091Z,390.0714
2023-05-03T03:24:00.029Z,389.2857
2023-05-03T03:25:08.123Z,390.5000
2023-05-03T03:26:16.172Z,389.0714
2023-05-03T03:27:24.315Z,387.6429
2023-05-03T03:28:32.540Z,388.7143
2023-05-03T03:29:40.492Z,386.8571
2023-05-03T03:30:48.567Z,388.1429
2023-05-03T03:31:56.868Z,388.4286
2023-05-03T03:33:04.669Z,388.5714
2023-05-03T03:34:12.684Z,389.2143
2023-05-03T03:35:20.925Z,388.2143
2023-05-03T03:36:28.786Z,386.8571
2023-05-03T03:37:36.851Z,388.2143
2023-05-03T03:38:44.755Z,384.6429
2023-05-03T03:39:52.858Z,387.6429
2023-05-03T03:41:00.893Z,388.7857
2023-05-03T03:42:09.041Z,386.2857
2023-05-03T03:43:17.218Z,387.0000
2023-05-03T03:44:25.295Z,384.2143
2023-05-03T03:45:33.309Z,382.2857
2023-05-03T03:46:41.643Z,386.1429
2023-05-03T03:47:51.375Z,383.5000
2023-05-03T03:49:02.260Z,382.6000
2023-05-03T03:50:10.373Z,380.9286
2023-05-03T03:51:18.355Z,380.1429
2023-05-03T03:52:26.306Z,379.3571
2023-05-03T03:53:34.383Z,382.8571
2023-05-03T03:54:42.446Z,380.0000
2023-05-03T03:55:50.639Z,379.6429
2023-05-03T03:56:58.711Z,383.2857
2023-05-03T03:58:06.797Z,380.3571
2023-05-03T03:59:14.799Z,380.0714
2023-05-03T04:00:22.910Z,381.2143
2023-05-03T04:01:30.990Z,380.0714
2023-05-03T04:02:39.185Z,380.5000
2023-05-03T04:03:47.035Z,379.8571
2023-05-03T04:04:55.087Z,381.6429
2023-05-03T04:06:03.245Z,379.0714
2023-05-03T04:07:11.077Z,377.2143
2023-05-03T04:08:19.108Z,377.2857
2023-05-03T04:09:27.193Z,378.1429
2023-05-03T04:10:35.387Z,378.0000
2023-05-03T04:11:43.457Z,376.3571
2023-05-03T04:12:51.490Z,378.2857
2023-05-03T04:13:59.549Z,377.4286
2023-05-03T04:15:07.638Z,378.5000
2023-05-03T04:16:15.983Z,376.2857
2023-05-03T04:17:23.755Z,379.0714
2023-05-03T04:18:31.841Z,378.5000
2023-05-03T04:19:39.909Z,377.9286
2023-05-03T04:20:47.982Z,377.5714
2023-05-03T04:21:55.886Z,381.0000
2023-05-03T04:23:03.932Z,380.1429
2023-05-03T04:24:11.992Z,379.7857
2023-05-03T04:25:20.154Z,379.9286
2023-05-03T04:26:32.263Z,378.9286
2023-05-03T04:27:41.158Z,376.9333
2023-05-03T04:28:49.211Z,379.4286
2023-05-03T04:29:57.343Z,379.7143
2023-05-03T04:31:05.454Z,379.6429
2023-05-03T04:32:13.380Z,378.8571
2023-05-03T04:33:21.564Z,379.5714
2023-05-03T04:34:29.508Z,381.0714
2023-05-03T04:35:37.435Z,381.2143
2023-05-03T04:36:45.523Z,378.0000
2023-05-03T04:37:53.554Z,381.1429
2023-05-03T04:39:01.753Z,381.9286
2023-05-03T04:40:09.835Z,382.7143
2023-05-03T04:41:17.948Z,384.5000
2023-05-03T04:42:25.920Z,381.6429
2023-05-03T04:43:34.201Z,384.9286
2023-05-03T04:44:41.954Z,382.8571
2023-05-03T04:45:50.041Z,385.5000
2023-05-03T04:46:58.169Z,385.2143
2023-05-03T04:48:06.238Z,387.7857
2023-05-03T04:49:14.311Z,385.2857
2023-05-03T04:50:22.163Z,387.9286
2023-05-03T04:51:30.255Z,387.9286
2023-05-03T04:52:38.282Z,386.4286
2023-05-03T04:53:46.457Z,385.5000
2023-05-03T04:54:54.525Z,386.0000
2023-05-03T04:56:02.636Z,388.9286
2023-05-03T04:57:10.700Z,386.8571
2023-05-03T04:58:18.688Z,392.0714
2023-05-03T04:59:26.812Z,390.4286
2023-05-03T05:00:34.812Z,394.0714
2023-05-03T05:01:43.026Z,395.8571
2023-05-03T05:02:51.032Z,392.7857
2023-05-03T05:03:59.153Z,397.8571
2023-05-03T05:05:06.901Z,399.0714
2023-05-03T05:06:14.987Z,400.1429
2023-05-03T05:07:23.053Z,402.2143
2023-05-03T05:08:31.172Z,404.5000
2023-05-03T05:09:39.219Z,406.0714
2023-05-03T05:10:47.424Z,407.7857
2023-05-03T05:11:57.060Z,406.4286
2023-05-03T05:13:08.300Z,413.8667
2023-05-03T05:14:16.675Z,411.3571
2023-05-03T05:15:24.446Z,414.2143
2023-05-03T05:16:32.501Z,416.4286
2023-05-03T05:17:40.775Z,418.7143
2023-05-03T05:18:48.575Z,417.3571
2023-05-03T05:19:56.523Z,418.6429
2023-05-03T05:21:04.582Z,417.8571
2023-05-03T05:22:12.723Z,420.7143
2023-05-03T05:23:20.927Z,422.5714
2023-05-03T05:24:28.881Z,427.9286
2023-05-03T05:25:36.951Z,427.2143
2023-05-03T05:26:45.195Z,427.8571
2023-05-03T05:27:53.066Z,429.2143
2023-05-03T05:29:01.121Z,429.8571
2023-05-03T05:30:09.283Z,429.5000
2023-05-03T05:31:17.240Z,430.3571
2023-05-03T05:32:25.405Z,430.5000
2023-05-03T05:33:33.325Z,436.0714
2023-05-03T05:34:45.317Z,436.0000
2023-05-03T05:35:54.302Z,437.0000
2023-05-03T05:37:02.380Z,435.7857
2023-05-03T05:38:10.284Z,436.7143
2023-05-03T05:39:18.694Z,441.0000
2023-05-03T05:40:26.567Z,439.9286
2023-05-03T05:41:34.605Z,439.0000
2023-05-03T05:42:42.774Z,443.0714
2023-05-03T05:43:50.763Z,444.5000
2023-05-03T05:44:58.842Z,442.0000
2023-05-03T05:46:06.865Z,445.2857
2023-05-03T05:47:15.054Z,445.8571
2023-05-03T05:48:22.905Z,447.1429
2023-05-03T05:49:30.947Z,446.0000
2023-05-03T05:50:39.007Z,446.0000
2023-05-03T05:51:47.288Z,450.7143
2023-05-03T05:52:55.238Z,448.7143
2023-05-03T05:54:03.340Z,446.7143
2023-05-03T05:55:11.625Z,449.5000
2023-05-03T05:56:19.426Z,448.9286
2023-05-03T05:57:27.478Z,454.7143
2023-05-03T05:58:35.585Z,454.6429
2023-05-03T05:59:43.627Z,454.7857
2023-05-03T06:00:51.631Z,455.5714
2023-05-03T06:01:59.798Z,456.5000
2023-05-03T06:03:07.666Z,461.5714
2023-05-03T06:04:15.759Z,461.5714
2023-05-03T06:05:23.844Z,463.0000
2023-05-03T06:06:31.984Z,463.2143
2023-05-03T06:07:40.015Z,467.0000
2023-05-03T06:08:48.117Z,466.7857
2023-05-03T06:09:56.337Z,467.5714
2023-05-03T06:11:04.224Z,468.8571
2023-05-03T06:12:12.454Z,470.9286
2023-05-03T06:13:20.367Z,469.0000
2023-05-03T06:14:28.376Z,471.3571
2023-05-03T06:15:36.426Z,475.7857
2023-05-03T06:16:44.607Z,471.5000
2023-05-03T06:17:52.452Z,475.5714
2023-05-03T06:19:00.470Z,473.6429
2023-05-03T06:20:08.547Z,474.2143
2023-05-03T06:21:16.782Z,477.0000
2023-05-03T06:22:24.757Z,474.7143
2023-05-03T06:23:32.845Z,473.7143
2023-05-03T06:24:40.837Z,475.0000
2023-05-03T06:25:48.937Z,475.9286
2023-05-03T06:26:57.056Z,476.4286
2023-05-03T06:28:05.053Z,478.5000
2023-05-03T06:29:13.168Z,478.2143
2023-05-03T06:30:21.249Z,479.0714
2023-05-03T06:31:29.204Z,477.8571
2023-05-03T06:32:37.192Z,481.5000
2023-05-03T06:33:45.260Z,482.2143
2023-05-03T06:34:53.267Z,480.9286
2023-05-03T06:36:01.451Z,481.7143
2023-05-03T06:37:09.632Z,481.2143
2023-05-03T06:38:17.567Z,480.4286
2023-05-03T06:39:25.746Z,480.2857
2023-05-03T06:40:33.815Z,481.2143
2023-05-03T06:41:41.921Z,478.5714
2023-05-03T06:42:49.801Z,480.2143
2023-05-03T06:43:57.989Z,482.7857
2023-05-03T06:45:05.922Z,482.5714
2023-05-03T06:46:13.978Z,483.2143
2023-05-03T06:47:21.879Z,484.7857
2023-05-03T06:48:30.196Z,485.3571
2023-05-03T06:49:38.048Z,484.9286
2023-05-03T06:50:46.080Z,485.3571
2023-05-03T06:51:54.123Z,485.8571
2023-05-03T06:53:02.248Z,486.7857
2023-05-03T06:54:10.538Z,486.0714
2023-05-03T06:55:18.372Z,487.8571
2023-05-03T06:56:26.485Z,488.4286
2023-05-03T06:57:34.548Z,489.5000
2023-05-03T06:58:42.608Z,488.2143
2023-05-03T06:59:50.702Z,496.2857
2023-05-03T07:00:58.854Z,494.6429
2023-05-03T07:02:06.814Z,494.5000
2023-05-03T07:03:14.840Z,494.0000
2023-05-03T07:04:22.824Z,498.7857
2023-05-03T07:05:30.839Z,500.7857
2023-05-03T07:06:54.773Z,499.8571
2023-05-03T07:07:51.863Z,501.0667
2023-05-03T07:08:59.992Z,504.2143
2023-05-03T07:10:08.287Z,506.2143
2023-05-03T07:11:16.024Z,508.5000
2023-05-03T07:12:24.088Z,511.0714
2023-05-03T07:13:32.258Z,510.2143
2023-05-03T07:14:40.253Z,510.4286
2023-05-03T07:15:48.394Z,513.9286
2023-05-03T07:16:56.627Z,510.7857
2023-05-03T07:18:04.339Z,511.1429
2023-05-03T07:19:12.389Z,513.6429
2023-05-03T07:20:20.407Z,516.0000
2023-05-03T07:21:28.572Z,514.2143
2023-05-03T07:22:36.657Z,518.2143
2023-05-03T07:23:44.674Z,519.1429
2023-05-03T07:24:52.867Z,520.0714
2023-05-03T07:26:00.908Z,517.6429
2023-05-03T07:27:08.844Z,518.0000
2023-05-03T07:28:16.911Z,522.7857
2023-05-03T07:29:24.982Z,521.0714
2023-05-03T07:30:33.041Z,523.4286
2023-05-03T07:31:41.037Z,522.3571
2023-05-03T07:32:49.108Z,524.3571
2023-05-03T07:33:57.098Z,523.9286
2023-05-03T07:35:05.153Z,524.0000
2023-05-03T07:36:13.342Z,530.4286
2023-05-03T07:37:21.386Z,525.7857
2023-05-03T07:38:29.427Z,527.1429
2023-05-03T07:39:37.415Z,531.2143
2023-05-03T07:40:45.463Z,533.0000
2023-05-03T07:41:53.832Z,534.5000
2023-05-03T07:43:01.675Z,534.5714
2023-05-03T07:44:09.646Z,536.4286
2023-05-03T07:45:17.881Z,533.3571
2023-05-03T07:46:25.921Z,531.5000
2023-05-03T07:47:33.804Z,532.5714
2023-05-03T07:48:41.791Z,533.0714
2023-05-03T07:49:49.843Z,537.7857
2023-05-03T07:50:57.976Z,537.1429
2023-05-03T07:52:06.323Z,535.1429
2023-05-03T07:53:14.165Z,535.3571
2023-05-03T07:54:22.125Z,535.4286
2023-05-03T07:55:30.331Z,535.2143
2023-05-03T07:56:38.366Z,534.1429
2023-05-03T07:57:46.317Z,533.9286
2023-05-03T07:59:07.550Z,537.2857
2023-05-03T08:00:07.216Z,534.6667
2023-05-03T08:01:15.771Z,534.5000
2023-05-03T08:02:23.431Z,535.2857
2023-05-03T08:03:31.753Z,535.0000
2023-05-03T08:04:39.691Z,535.9286
2023-05-03T08:05:47.744Z,538.5000
2023-05-03T08:06:55.636Z,535.9286
2023-05-03T08:08:03.748Z,540.8571
2023-05-03T08:09:11.758Z,540.9286
2023-05-03T08:10:19.911Z,548.1429
2023-05-03T08:11:27.853Z,548.0714
2023-05-03T08:12:35.979Z,550.9286
2023-05-03T08:13:44.129Z,551.7143
2023-05-03T08:14:52.020Z,556.2857
2023-05-03T08:16:00.062Z,558.0000
2023-05-03T08:17:08.078Z,558.4286
2023-05-03T08:18:16.314Z,559.4286
2023-05-03T08:19:24.331Z,563.3571
2023-05-03T08:20:32.229Z,564.3571
2023-05-03T08:21:40.445Z,569.6429
2023-05-03T08:22:48.491Z,578.6429
2023-05-03T08:23:56.598Z,580.8571
2023-05-03T08:25:04.664Z,583.9286
2023-05-03T08:26:12.643Z,586.7857
2023-05-03T08:27:20.765Z,583.0000
2023-05-03T08:28:28.725Z,586.2857
2023-05-03T08:29:36.731Z,588.2857
2023-05-03T08:30:44.759Z,586.9286
2023-05-03T08:31:52.868Z,586.9286
2023-05-03T08:33:00.971Z,587.2857
2023-05-03T08:34:09.074Z,589.0714
2023-05-03T08:35:17.140Z,587.2143
2023-05-03T08:36:25.117Z,587.1429
2023-05-03T08:37:33.213Z,587.2857
2023-05-03T08:38:41.298Z,586.0714
2023-05-03T08:39:49.329Z,588.6429
2023-05-03T08:40:57.372Z,588.6429
2023-05-03T08:42:05.602Z,594.0714
2023-05-03T08:43:13.469Z,591.9286
2023-05-03T08:44:21.523Z,593.2143
2023-05-03T08:45:29.556Z,596.7857
2023-05-03T08:46:37.616Z,595.6429
2023-05-03T08:47:46.003Z,598.5714
2023-05-03T08:48:53.764Z,599.9286
2023-05-03T08:50:02.096Z,600.8571
2023-05-03T08:51:09.988Z,598.7857
2023-05-03T08:52:17.961Z,601.2143
2023-05-03T08:53:25.987Z,599.2143
2023-05-03T08:54:34.078Z,596.5714
2023-05-03T08:55:42.124Z,594.5714
2023-05-03T08:56:50.145Z,597.0000
2023-05-03T08:57:58.215Z,593.1429
2023-05-03T08:59:06.192Z,593.7857
2023-05-03T09:00:14.290Z,594.1429
2023-05-03T09:01:22.422Z,590.5714
2023-05-03T09:02:30.747Z,587.5000
2023-05-03T09:03:38.609Z,582.2857
2023-05-03T09:04:46.609Z,579.4286
2023-05-03T09:05:54.603Z,581.5714
2023-05-03T09:07:02.718Z,575.5000
2023-05-03T09:08:10.734Z,575.2143
2023-05-03T09:09:18.836Z,573.5000
2023-05-03T09:10:26.924Z,571.6429
2023-05-03T09:11:34.915Z,571.8571
2023-05-03T09:12:42.962Z,572.0714
2023-05-03T09:13:50.950Z,566.5714
2023-05-03T09:14:59.024Z,571.5000
2023-05-03T09:16:07.108Z,569.6429
2023-05-03T09:17:15.195Z,567.5714
2023-05-03T09:18:23.429Z,566.0714
2023-05-03T09:19:31.256Z,560.6429
2023-05-03T09:20:39.469Z,555.7857
2023-05-03T09:21:47.536Z,557.0714
2023-05-03T09:22:55.447Z,556.2857
2023-05-03T09:24:03.539Z,553.2857
2023-05-03T09:25:11.635Z,544.3571
2023-05-03T09:26:19.614Z,546.0714
2023-05-03T09:27:27.728Z,542.0714
2023-05-03T09:28:35.657Z,541.7143
2023-05-03T09:29:43.719Z,539.2143
2023-05-03T09:30:51.855Z,540.1429
2023-05-03T09:32:00.049Z,540.7857
2023-05-03T09:33:08.073Z,538.5714
2023-05-03T09:34:16.056Z,532.7143
2023-05-03T09:35:24.158Z,532.7857
2023-05-03T09:36:32.455Z,532.7857
2023-05-03T09:37:40.217Z,531.4286
2023-05-03T09:38:48.332Z,535.3571
2023-05-03T09:39:56.366Z,534.7143
2023-05-03T09:41:04.404Z,533.0000
2023-05-03T09:42:12.547Z,533.0000
2023-05-03T09:43:20.407Z,531.3571
2023-05-03T09:44:28.480Z,534.7857
2023-05-03T09:45:36.589Z,531.4286
2023-05-03T09:46:44.816Z,530.7857
2023-05-03T09:47:52.841Z,529.8571
2023-05-03T09:49:00.729Z,531.1429
2023-05-03T09:50:08.851Z,529.9286
2023-05-03T09:51:17.071Z,530.2143
2023-05-03T09:52:25.014Z,530.1429
2023-05-03T09:53:33.169Z,529.5714
2023-05-03T09:54:41.294Z,530.2143
2023-05-03T09:55:49.283Z,532.1429
2023-05-03T09:56:57.316Z,529.8571
2023-05-03T09:58:05.242Z,529.9286
2023-05-03T09:59:13.325Z,533.9286
2023-05-03T10:00:21.372Z,532.5714
2023-05-03T10:01:29.578Z,536.5000
2023-05-03T10:02:37.621Z,536.5000
2023-05-03T10:03:45.639Z,538.4286
2023-05-03T10:04:53.700Z,539.8571
2023-05-03T10:06:01.725Z,539.7143
2023-05-03T10:07:11.949Z,548.8571
2023-05-03T10:08:22.810Z,560.2000
2023-05-03T10:09:30.787Z,573.3571
2023-05-03T10:10:38.857Z,592.5714
2023-05-03T10:11:46.794Z,615.5714
2023-05-03T10:12:55.076Z,639.3571
2023-05-03T10:14:02.915Z,656.5714
2023-05-03T10:15:11.085Z,673.2857
2023-05-03T10:16:19.261Z,693.6429
2023-05-03T10:17:35.714Z,761.9286
2023-05-03T10:18:40.173Z,863.0667
2023-05-03T10:19:48.174Z,961.0000
2023-05-03T10:20:56.299Z,1037.8572
2023-05-03T10:22:04.260Z,1126.9286
2023-05-03T10:23:12.599Z,1197.7142
2023-05-03T10:24:20.322Z,1278.0000
2023-05-03T10:25:28.347Z,1342.6428
2023-05-03T10:26:36.400Z,1378.7142
2023-05-03T10:27:44.469Z,1401.0000
2023-05-03T10:28:52.509Z,1417.0714
2023-05-03T10:30:00.635Z,1443.1428
2023-05-03T10:31:08.985Z,1445.0000
2023-05-03T10:32:16.841Z,1498.7142
2023-05-03T10:33:24.845Z,1511.0000
2023-05-03T10:34:32.914Z,1558.2858
2023-05-03T10:35:40.939Z,1615.8572
2023-05-03T10:36:50.117Z,1669.2142
2023-05-03T10:37:56.988Z,1705.2858
2023-05-03T10:39:05.029Z,1769.7142
2023-05-03T10:40:13.082Z,1827.6428
2023-05-03T10:41:21.251Z,1898.8572
2023-05-03T10:42:29.400Z,1952.7142
2023-05-03T10:43:37.394Z,2000.0714
2023-05-03T10:44:45.516Z,2067.7856
2023-05-03T10:45:53.520Z,2123.7856
2023-05-03T10:47:01.546Z,2188.2856
2023-05-03T10:48:09.903Z,2246.3572
2023-05-03T10:49:17.683Z,2295.2856
2023-05-03T10:50:25.735Z,2319.7144
2023-05-03T10:51:33.710Z,2347.4285
2023-05-03T10:52:41.758Z,2381.7856
2023-05-03T10:53:49.816Z,2418.0000
2023-05-03T10:54:57.867Z,2458.5000
2023-05-03T10:56:06.047Z,2500.5715
2023-05-03T10:57:13.970Z,2527.2144
2023-05-03T10:58:21.998Z,2523.0715
2023-05-03T10:59:30.234Z,2534.2144
2023-05-03T11:00:38.359Z,2564.0000
2023-05-03T11:01:46.243Z,2599.7144
2023-05-03T11:02:54.508Z,2630.1428
2023-05-03T11:04:02.461Z,2657.2856
2023-05-03T11:05:10.677Z,2687.4285
2023-05-03T11:06:18.495Z,2700.1428
2023-05-03T11:07:26.487Z,2711.0000
2023-05-03T11:08:34.559Z,2691.4285
2023-05-03T11:09:42.693Z,2664.4285
2023-05-03T11:10:50.800Z,2641.0715
2023-05-03T11:11:58.748Z,2562.5715
2023-05-03T11:13:06.833Z,2470.7144
2023-05-03T11:14:14.904Z,2379.2856
2023-05-03T11:15:22.927Z,2260.2856
2023-05-03T11:16:31.250Z,2126.1428
2023-05-03T11:17:39.299Z,2020.5000
2023-05-03T11:18:47.237Z,1932.5714
2023-05-03T11:19:55.263Z,1844.5714
2023-05-03T11:21:03.287Z,1775.8572
2023-05-03T11:22:11.335Z,1709.9286
2023-05-03T11:23:19.384Z,1641.8572
2023-05-03T11:24:27.423Z,1580.4286
2023-05-03T11:25:35.655Z,1515.3572
2023-05-03T11:26:43.560Z,1492.1428
2023-05-03T11:27:51.807Z,1459.5000
2023-05-03T11:28:59.793Z,1442.6428
2023-05-03T11:30:07.815Z,1400.5714
2023-05-03T11:31:16.170Z,1364.4286
2023-05-03T11:32:24.151Z,1338.3572
2023-05-03T11:33:32.087Z,1309.0714
2023-05-03T11:34:40.058Z,1289.4286
2023-05-03T11:35:48.033Z,1246.0000
2023-05-03T11:36:56.114Z,1236.5714
2023-05-03T11:38:04.159Z,1222.0000
2023-05-03T11:39:12.372Z,1197.2142
2023-05-03T11:40:20.271Z,1158.8572
2023-05-03T11:41:28.285Z,1145.5714
2023-05-03T11:42:36.811Z,1130.0000
2023-05-03T11:43:44.491Z,1130.0714
2023-05-03T11:44:52.649Z,1128.4286
2023-05-03T11:46:00.775Z,1103.1428
2023-05-03T11:47:08.885Z,1094.7142
2023-05-03T11:48:16.776Z,1080.2858
2023-05-03T11:49:24.784Z,1086.7142
2023-05-03T11:50:32.813Z,1080.2858
2023-05-03T11:51:40.837Z,1100.2858
2023-05-03T11:52:48.890Z,1107.0000
2023-05-03T11:53:57.074Z,1129.6428
2023-05-03T11:55:05.549Z,1165.5000
2023-05-03T11:56:13.175Z,1249.4286
2023-05-03T11:57:21.118Z,1349.9286
2023-05-03T11:58:29.180Z,1445.1428
2023-05-03T11:59:37.376Z,1575.5714
2023-05-03T12:00:45.504Z,1701.0000
2023-05-03T12:01:53.546Z,1839.2142
2023-05-03T12:03:01.813Z,1957.1428
2023-05-03T12:04:09.560Z,2047.9286
2023-05-03T12:05:18.301Z,2116.2144
2023-05-03T12:06:26.506Z,2229.7856
2023-05-03T12:07:34.003Z,2315.2856
2023-05-03T12:08:44.296Z,2439.6428
2023-05-03T12:10:10.822Z,2576.8000
2023-05-03T12:11:09.651Z,2715.1333
2023-05-03T12:12:25.802Z,2828.7334
2023-05-03T12:13:34.703Z,2943.4666
2023-05-03T12:14:41.908Z,3034.3572
2023-05-03T12:15:58.541Z,3089.0000
2023-05-03T12:17:02.617Z,3155.2666
2023-05-03T12:18:10.946Z,3220.2856
2023-05-03T12:19:19.105Z,3256.1428
2023-05-03T12:21:05.726Z,3296.7856
2023-05-03T12:21:42.315Z,3339.6667
2023-05-03T12:22:56.314Z,3394.1333
2023-05-03T12:24:06.274Z,3430.3333
2023-05-03T12:25:15.630Z,3490.2856
2023-05-03T12:26:26.737Z,3616.0667
2023-05-03T12:27:36.690Z,3779.7144
2023-05-03T12:28:47.558Z,3919.1333
2023-05-03T12:29:57.211Z,4040.9285
2023-05-03T12:31:05.139Z,3838.1428
2023-05-03T12:32:16.650Z,3535.2666
2023-05-03T12:33:28.097Z,3310.5000
2023-05-03T12:34:40.874Z,3167.2000
2023-05-03T12:35:53.584Z,2987.3999
2023-05-03T12:37:06.122Z,2832.4666
2023-05-03T12:38:17.342Z,2774.1333
2023-05-03T12:39:32.389Z,2760.6001
2023-05-03T12:40:42.271Z,2721.0000
2023-05-03T12:42:06.454Z,2558.2856
2023-05-03T12:43:03.144Z,2433.7334
2023-05-03T12:44:11.254Z,2402.2856
2023-05-03T12:45:21.284Z,2400.7144
2023-05-03T12:46:34.691Z,2404.9333
2023-05-03T12:47:45.359Z,2414.9333
2023-05-03T12:48:54.263Z,2421.7144
2023-05-03T12:50:03.447Z,2454.2856
2023-05-03T12:53:40.093Z,2075.0000
2023-05-03T12:54:49.168Z,2060.2856
2023-05-03T12:55:58.617Z,2095.5715
2023-05-03T12:57:13.004Z,2181.6001
2023-05-03T12:58:53.663Z,2267.6667
2023-05-03T12:59:41.764Z,2259.2000
2023-05-03T13:01:22.177Z,2127.7334
2023-05-03T13:03:20.487Z,1790.7333
2023-05-03T13:05:39.969Z,1608.5333
2023-05-03T13:06:48.271Z,1518.7858
2023-05-03T13:07:56.816Z,1391.2142
2023-05-03T13:09:03.900Z,1366.7142
2023-05-03T13:11:24.851Z,1430.6000
2023-05-03T13:12:32.784Z,1378.4286
2023-05-03T13:13:40.835Z,1353.2858
2023-05-03T13:14:48.973Z,1393.5714
2023-05-03T13:15:57.107Z,1496.9286
2023-05-03T13:17:05.098Z,1571.7858
2023-05-03T13:18:13.234Z,1654.7142
2023-05-03T13:19:21.246Z,1783.2858
2023-05-03T13:20:29.335Z,1904.7142
2023-05-03T13:21:37.350Z,2007.9286
2023-05-03T13:22:45.506Z,2074.1428